sensor_id;sensor_type;location;lat;lon;timestamp;P1;durP1;ratioP1;P2;durP2;ratioP2
34152;SDS011;20426;48.372;10.888;2023-02-12T00:00:06;20.23;;;10.35;;
34152;SDS011;20426;48.372;10.888;2023-02-12T00:00:40;18.67;;;11.45;;
34152;SDS011;20426;48.372;10.888;2023-02-12T00:01:12;21.80;;;12.05;;
34152;SDS011;20426;48.372;10.888;2023-02-12T00:01:43;22.05;;;10.90;;
34152;SDS011;20426;48.372;10.888;2023-02-12T00:02:14;19.88;;;11.02;;
34152;SDS011;20426;48.372;10.888;2023-02-12T00:02:45;18.60;;;10.20;;
34152;SDS011;20426;48.372;10.888;2023-02-12T00:03:16;14.80;;;9.90;;
34152;SDS011;20426;48.372;10.888;2023-02-12T00:03:46;18.95;;;11.00;;
34152;SDS011;20426;48.372;10.888;2023-02-12T00:04:17;19.67;;;10.77;;
34152;SDS011;20426;48.372;10.888;2023-02-12T00:04:48;14.68;;;10.32;;
34152;SDS011;20426;48.372;10.888;2023-02-12T00:05:19;18.63;;;10.02;;
34152;SDS011;20426;48.372;10.888;2023-02-12T00:05:49;17.02;;;10.65;;
34152;SDS011;20426;48.372;10.888;2023-02-12T00:06:20;17.35;;;10.43;;
34152;SDS011;20426;48.372;10.888;2023-02-12T00:06:51;19.35;;;10.73;;
34152;SDS011;20426;48.372;10.888;2023-02-12T00:07:22;20.77;;;11.32;;
34152;SDS011;20426;48.372;10.888;2023-02-12T00:07:53;19.05;;;10.32;;
34152;SDS011;20426;48.372;10.888;2023-02-12T00:08:24;19.02;;;11.35;;
34152;SDS011;20426;48.372;10.888;2023-02-12T00:08:56;17.38;;;10.25;;
34152;SDS011;20426;48.372;10.888;2023-02-12T00:09:27;20.50;;;11.70;;
34152;SDS011;20426;48.372;10.888;2023-02-12T00:09:58;19.23;;;10.40;;
34152;SDS011;20426;48.372;10.888;2023-02-12T00:10:29;18.38;;;11.57;;
34152;SDS011;20426;48.372;10.888;2023-02-12T00:11:05;15.88;;;10.32;;
34152;SDS011;20426;48.372;10.888;2023-02-12T00:11:39;17.73;;;11.15;;
34152;SDS011;20426;48.372;10.888;2023-02-12T00:12:11;16.40;;;10.32;;
34152;SDS011;20426;48.372;10.888;2023-02-12T00:12:41;20.35;;;11.82;;
34152;SDS011;20426;48.372;10.888;2023-02-12T00:13:12;25.55;;;10.35;;
34152;SDS011;20426;48.372;10.888;2023-02-12T00:13:44;23.00;;;11.68;;
34152;SDS011;20426;48.372;10.888;2023-02-12T00:14:14;17.02;;;10.48;;
34152;SDS011;20426;48.372;10.888;2023-02-12T00:14:45;21.02;;;11.68;;
34152;SDS011;20426;48.372;10.888;2023-02-12T00:15:16;19.45;;;11.50;;
34152;SDS011;20426;48.372;10.888;2023-02-12T00:15:46;17.45;;;11.00;;
34152;SDS011;20426;48.372;10.888;2023-02-12T00:16:18;18.20;;;11.13;;
34152;SDS011;20426;48.372;10.888;2023-02-12T00:16:50;19.88;;;10.20;;
34152;SDS011;20426;48.372;10.888;2023-02-12T00:17:21;19.17;;;10.77;;
34152;SDS011;20426;48.372;10.888;2023-02-12T00:17:52;19.25;;;10.30;;
34152;SDS011;20426;48.372;10.888;2023-02-12T00:18:22;19.88;;;11.02;;
34152;SDS011;20426;48.372;10.888;2023-02-12T00:18:54;18.73;;;10.68;;
34152;SDS011;20426;48.372;10.888;2023-02-12T00:19:25;18.33;;;10.35;;
34152;SDS011;20426;48.372;10.888;2023-02-12T00:19:56;19.55;;;11.43;;
34152;SDS011;20426;48.372;10.888;2023-02-12T00:20:27;20.50;;;11.57;;
34152;SDS011;20426;48.372;10.888;2023-02-12T00:20:58;19.95;;;11.25;;
34152;SDS011;20426;48.372;10.888;2023-02-12T00:21:30;18.05;;;10.90;;
34152;SDS011;20426;48.372;10.888;2023-02-12T00:22:01;17.60;;;10.93;;
34152;SDS011;20426;48.372;10.888;2023-02-12T00:22:31;16.08;;;9.93;;
34152;SDS011;20426;48.372;10.888;2023-02-12T00:23:03;18.15;;;11.05;;
34152;SDS011;20426;48.372;10.888;2023-02-12T00:23:34;21.38;;;11.23;;
34152;SDS011;20426;48.372;10.888;2023-02-12T00:24:07;15.63;;;10.52;;
34152;SDS011;20426;48.372;10.888;2023-02-12T00:24:37;18.83;;;10.40;;
34152;SDS011;20426;48.372;10.888;2023-02-12T00:25:08;16.77;;;10.13;;
34152;SDS011;20426;48.372;10.888;2023-02-12T00:25:40;18.58;;;11.27;;
34152;SDS011;20426;48.372;10.888;2023-02-12T00:26:12;17.75;;;10.73;;
34152;SDS011;20426;48.372;10.888;2023-02-12T00:26:45;18.63;;;11.18;;
34152;SDS011;20426;48.372;10.888;2023-02-12T00:27:17;18.05;;;10.65;;
34152;SDS011;20426;48.372;10.888;2023-02-12T00:27:48;19.17;;;11.35;;
34152;SDS011;20426;48.372;10.888;2023-02-12T00:28:18;22.23;;;11.63;;
34152;SDS011;20426;48.372;10.888;2023-02-12T00:28:49;16.73;;;10.32;;
34152;SDS011;20426;48.372;10.888;2023-02-12T00:29:20;17.58;;;10.95;;
34152;SDS011;20426;48.372;10.888;2023-02-12T00:29:51;19.40;;;10.95;;
34152;SDS011;20426;48.372;10.888;2023-02-12T00:30:22;18.67;;;10.82;;
34152;SDS011;20426;48.372;10.888;2023-02-12T00:30:53;22.40;;;11.25;;
34152;SDS011;20426;48.372;10.888;2023-02-12T00:31:25;20.58;;;11.75;;
34152;SDS011;20426;48.372;10.888;2023-02-12T00:31:57;21.38;;;11.25;;
34152;SDS011;20426;48.372;10.888;2023-02-12T00:32:28;17.83;;;10.60;;
34152;SDS011;20426;48.372;10.888;2023-02-12T00:32:58;18.55;;;10.75;;
34152;SDS011;20426;48.372;10.888;2023-02-12T00:33:29;19.05;;;11.60;;
34152;SDS011;20426;48.372;10.888;2023-02-12T00:34:00;17.20;;;10.50;;
34152;SDS011;20426;48.372;10.888;2023-02-12T00:34:31;16.90;;;10.15;;
34152;SDS011;20426;48.372;10.888;2023-02-12T00:35:02;20.23;;;10.80;;
34152;SDS011;20426;48.372;10.888;2023-02-12T00:35:33;18.88;;;11.68;;
34152;SDS011;20426;48.372;10.888;2023-02-12T00:36:04;18.40;;;10.75;;
34152;SDS011;20426;48.372;10.888;2023-02-12T00:36:35;23.73;;;11.63;;
34152;SDS011;20426;48.372;10.888;2023-02-12T00:37:06;18.92;;;11.55;;
34152;SDS011;20426;48.372;10.888;2023-02-12T00:37:36;20.02;;;11.57;;
34152;SDS011;20426;48.372;10.888;2023-02-12T00:38:07;20.80;;;11.52;;
34152;SDS011;20426;48.372;10.888;2023-02-12T00:38:38;21.25;;;11.75;;
34152;SDS011;20426;48.372;10.888;2023-02-12T00:39:08;20.67;;;11.30;;
34152;SDS011;20426;48.372;10.888;2023-02-12T00:39:40;18.92;;;10.95;;
34152;SDS011;20426;48.372;10.888;2023-02-12T00:40:11;19.73;;;11.57;;
34152;SDS011;20426;48.372;10.888;2023-02-12T00:40:42;17.83;;;10.88;;
34152;SDS011;20426;48.372;10.888;2023-02-12T00:41:12;22.60;;;12.65;;
34152;SDS011;20426;48.372;10.888;2023-02-12T00:41:43;19.23;;;11.52;;
34152;SDS011;20426;48.372;10.888;2023-02-12T00:42:14;18.25;;;10.63;;
34152;SDS011;20426;48.372;10.888;2023-02-12T00:42:44;21.38;;;12.05;;
34152;SDS011;20426;48.372;10.888;2023-02-12T00:43:15;27.13;;;12.05;;
34152;SDS011;20426;48.372;10.888;2023-02-12T00:43:46;18.23;;;11.43;;
34152;SDS011;20426;48.372;10.888;2023-02-12T00:44:17;21.33;;;11.43;;
34152;SDS011;20426;48.372;10.888;2023-02-12T00:44:48;20.85;;;11.82;;
34152;SDS011;20426;48.372;10.888;2023-02-12T00:45:19;21.52;;;11.20;;
34152;SDS011;20426;48.372;10.888;2023-02-12T00:45:49;22.13;;;12.18;;
34152;SDS011;20426;48.372;10.888;2023-02-12T00:46:20;20.90;;;12.38;;
34152;SDS011;20426;48.372;10.888;2023-02-12T00:46:51;15.82;;;10.20;;
34152;SDS011;20426;48.372;10.888;2023-02-12T00:47:22;25.15;;;12.02;;
34152;SDS011;20426;48.372;10.888;2023-02-12T00:47:52;20.33;;;12.25;;
34152;SDS011;20426;48.372;10.888;2023-02-12T00:48:23;20.65;;;10.98;;
34152;SDS011;20426;48.372;10.888;2023-02-12T00:48:54;20.15;;;12.05;;
34152;SDS011;20426;48.372;10.888;2023-02-12T00:49:24;18.00;;;10.95;;
34152;SDS011;20426;48.372;10.888;2023-02-12T00:49:55;16.95;;;11.57;;
34152;SDS011;20426;48.372;10.888;2023-02-12T00:50:26;20.33;;;11.63;;
34152;SDS011;20426;48.372;10.888;2023-02-12T00:50:56;18.58;;;10.85;;
34152;SDS011;20426;48.372;10.888;2023-02-12T00:51:27;18.45;;;11.35;;
34152;SDS011;20426;48.372;10.888;2023-02-12T00:52:02;20.85;;;11.77;;
34152;SDS011;20426;48.372;10.888;2023-02-12T00:52:33;21.42;;;11.05;;
34152;SDS011;20426;48.372;10.888;2023-02-12T00:53:04;19.05;;;11.30;;
34152;SDS011;20426;48.372;10.888;2023-02-12T00:53:35;19.75;;;11.13;;
34152;SDS011;20426;48.372;10.888;2023-02-12T00:54:06;20.83;;;10.88;;
34152;SDS011;20426;48.372;10.888;2023-02-12T00:54:36;18.25;;;11.35;;
34152;SDS011;20426;48.372;10.888;2023-02-12T00:55:07;21.73;;;11.55;;
34152;SDS011;20426;48.372;10.888;2023-02-12T00:55:38;21.30;;;10.80;;
34152;SDS011;20426;48.372;10.888;2023-02-12T00:56:09;18.20;;;10.90;;
34152;SDS011;20426;48.372;10.888;2023-02-12T00:56:40;22.02;;;11.75;;
34152;SDS011;20426;48.372;10.888;2023-02-12T00:57:11;15.65;;;9.98;;
34152;SDS011;20426;48.372;10.888;2023-02-12T00:57:42;19.50;;;11.50;;
34152;SDS011;20426;48.372;10.888;2023-02-12T00:58:12;18.33;;;11.93;;
34152;SDS011;20426;48.372;10.888;2023-02-12T00:58:43;21.55;;;10.70;;
34152;SDS011;20426;48.372;10.888;2023-02-12T00:59:14;17.73;;;10.30;;
34152;SDS011;20426;48.372;10.888;2023-02-12T00:59:44;20.80;;;11.93;;
34152;SDS011;20426;48.372;10.888;2023-02-12T01:00:15;20.73;;;12.00;;
34152;SDS011;20426;48.372;10.888;2023-02-12T01:00:46;18.45;;;10.93;;
34152;SDS011;20426;48.372;10.888;2023-02-12T01:01:17;22.77;;;12.90;;
34152;SDS011;20426;48.372;10.888;2023-02-12T01:01:48;19.63;;;11.77;;
34152;SDS011;20426;48.372;10.888;2023-02-12T01:02:20;20.73;;;11.60;;
34152;SDS011;20426;48.372;10.888;2023-02-12T01:02:50;19.40;;;12.25;;
34152;SDS011;20426;48.372;10.888;2023-02-12T01:03:21;17.70;;;11.32;;
34152;SDS011;20426;48.372;10.888;2023-02-12T01:03:52;19.10;;;11.55;;
34152;SDS011;20426;48.372;10.888;2023-02-12T01:04:23;20.52;;;12.75;;
34152;SDS011;20426;48.372;10.888;2023-02-12T01:04:54;18.10;;;10.95;;
34152;SDS011;20426;48.372;10.888;2023-02-12T01:05:25;19.88;;;10.82;;
34152;SDS011;20426;48.372;10.888;2023-02-12T01:05:56;19.23;;;10.98;;
34152;SDS011;20426;48.372;10.888;2023-02-12T01:06:26;22.63;;;12.25;;
34152;SDS011;20426;48.372;10.888;2023-02-12T01:06:57;16.45;;;10.35;;
34152;SDS011;20426;48.372;10.888;2023-02-12T01:07:28;19.67;;;12.18;;
34152;SDS011;20426;48.372;10.888;2023-02-12T01:08:00;23.45;;;12.43;;
34152;SDS011;20426;48.372;10.888;2023-02-12T01:08:30;21.15;;;11.52;;
34152;SDS011;20426;48.372;10.888;2023-02-12T01:09:01;21.48;;;11.73;;
34152;SDS011;20426;48.372;10.888;2023-02-12T01:09:32;19.90;;;11.15;;
34152;SDS011;20426;48.372;10.888;2023-02-12T01:10:04;20.63;;;11.68;;
34152;SDS011;20426;48.372;10.888;2023-02-12T01:10:35;25.30;;;12.43;;
34152;SDS011;20426;48.372;10.888;2023-02-12T01:11:06;20.38;;;12.52;;
34152;SDS011;20426;48.372;10.888;2023-02-12T01:11:37;22.08;;;11.70;;
34152;SDS011;20426;48.372;10.888;2023-02-12T01:12:08;21.55;;;12.48;;
34152;SDS011;20426;48.372;10.888;2023-02-12T01:12:39;18.30;;;11.40;;
34152;SDS011;20426;48.372;10.888;2023-02-12T01:13:11;20.45;;;12.18;;
34152;SDS011;20426;48.372;10.888;2023-02-12T01:13:43;20.52;;;11.80;;
34152;SDS011;20426;48.372;10.888;2023-02-12T01:14:14;16.40;;;10.88;;
34152;SDS011;20426;48.372;10.888;2023-02-12T01:14:44;22.02;;;11.98;;
34152;SDS011;20426;48.372;10.888;2023-02-12T01:15:16;18.73;;;11.63;;
34152;SDS011;20426;48.372;10.888;2023-02-12T01:15:47;19.88;;;11.23;;
34152;SDS011;20426;48.372;10.888;2023-02-12T01:16:19;22.98;;;12.10;;
34152;SDS011;20426;48.372;10.888;2023-02-12T01:16:53;20.67;;;11.88;;
34152;SDS011;20426;48.372;10.888;2023-02-12T01:17:23;19.67;;;11.57;;
34152;SDS011;20426;48.372;10.888;2023-02-12T01:17:54;19.15;;;11.65;;
34152;SDS011;20426;48.372;10.888;2023-02-12T01:18:25;19.65;;;11.23;;
34152;SDS011;20426;48.372;10.888;2023-02-12T01:18:56;18.55;;;11.15;;
34152;SDS011;20426;48.372;10.888;2023-02-12T01:19:26;20.80;;;11.68;;
34152;SDS011;20426;48.372;10.888;2023-02-12T01:19:57;18.33;;;11.23;;
34152;SDS011;20426;48.372;10.888;2023-02-12T01:20:28;20.35;;;11.93;;
34152;SDS011;20426;48.372;10.888;2023-02-12T01:20:59;19.75;;;11.82;;
34152;SDS011;20426;48.372;10.888;2023-02-12T01:21:31;21.15;;;11.50;;
34152;SDS011;20426;48.372;10.888;2023-02-12T01:22:03;16.95;;;10.68;;
34152;SDS011;20426;48.372;10.888;2023-02-12T01:22:34;20.58;;;11.90;;
34152;SDS011;20426;48.372;10.888;2023-02-12T01:23:06;23.75;;;13.18;;
34152;SDS011;20426;48.372;10.888;2023-02-12T01:23:37;21.90;;;12.10;;
34152;SDS011;20426;48.372;10.888;2023-02-12T01:24:09;25.52;;;12.13;;
34152;SDS011;20426;48.372;10.888;2023-02-12T01:24:40;18.17;;;11.98;;
34152;SDS011;20426;48.372;10.888;2023-02-12T01:25:10;18.15;;;10.70;;
34152;SDS011;20426;48.372;10.888;2023-02-12T01:25:41;19.73;;;11.10;;
34152;SDS011;20426;48.372;10.888;2023-02-12T01:26:12;18.67;;;11.50;;
34152;SDS011;20426;48.372;10.888;2023-02-12T01:26:44;19.35;;;11.70;;
34152;SDS011;20426;48.372;10.888;2023-02-12T01:27:15;20.45;;;11.32;;
34152;SDS011;20426;48.372;10.888;2023-02-12T01:27:45;19.08;;;11.63;;
34152;SDS011;20426;48.372;10.888;2023-02-12T01:28:16;24.58;;;12.20;;
34152;SDS011;20426;48.372;10.888;2023-02-12T01:28:49;21.33;;;11.43;;
34152;SDS011;20426;48.372;10.888;2023-02-12T01:29:21;20.05;;;11.73;;
34152;SDS011;20426;48.372;10.888;2023-02-12T01:29:51;18.23;;;11.80;;
34152;SDS011;20426;48.372;10.888;2023-02-12T01:30:22;21.15;;;11.20;;
34152;SDS011;20426;48.372;10.888;2023-02-12T01:30:53;17.77;;;10.93;;
34152;SDS011;20426;48.372;10.888;2023-02-12T01:31:25;22.50;;;11.38;;
34152;SDS011;20426;48.372;10.888;2023-02-12T01:31:57;18.88;;;12.07;;
34152;SDS011;20426;48.372;10.888;2023-02-12T01:32:28;20.15;;;11.73;;
34152;SDS011;20426;48.372;10.888;2023-02-12T01:32:59;22.50;;;11.48;;
34152;SDS011;20426;48.372;10.888;2023-02-12T01:33:30;19.75;;;11.18;;
34152;SDS011;20426;48.372;10.888;2023-02-12T01:34:00;20.85;;;12.38;;
34152;SDS011;20426;48.372;10.888;2023-02-12T01:34:31;20.70;;;11.38;;
34152;SDS011;20426;48.372;10.888;2023-02-12T01:35:02;21.88;;;11.75;;
34152;SDS011;20426;48.372;10.888;2023-02-12T01:35:33;22.23;;;12.65;;
34152;SDS011;20426;48.372;10.888;2023-02-12T01:36:03;22.38;;;12.93;;
34152;SDS011;20426;48.372;10.888;2023-02-12T01:36:34;20.73;;;12.07;;
34152;SDS011;20426;48.372;10.888;2023-02-12T01:37:05;23.75;;;11.88;;
34152;SDS011;20426;48.372;10.888;2023-02-12T01:37:36;22.92;;;12.52;;
34152;SDS011;20426;48.372;10.888;2023-02-12T01:38:07;21.33;;;11.65;;
34152;SDS011;20426;48.372;10.888;2023-02-12T01:38:38;21.67;;;12.13;;
34152;SDS011;20426;48.372;10.888;2023-02-12T01:39:09;20.88;;;11.25;;
34152;SDS011;20426;48.372;10.888;2023-02-12T01:39:41;16.73;;;10.63;;
34152;SDS011;20426;48.372;10.888;2023-02-12T01:40:12;18.50;;;11.63;;
34152;SDS011;20426;48.372;10.888;2023-02-12T01:40:46;22.15;;;11.80;;
34152;SDS011;20426;48.372;10.888;2023-02-12T01:41:21;23.95;;;12.55;;
34152;SDS011;20426;48.372;10.888;2023-02-12T01:41:56;20.77;;;11.93;;
34152;SDS011;20426;48.372;10.888;2023-02-12T01:42:27;20.17;;;11.05;;
34152;SDS011;20426;48.372;10.888;2023-02-12T01:42:59;21.80;;;12.52;;
34152;SDS011;20426;48.372;10.888;2023-02-12T01:43:32;19.75;;;11.27;;
34152;SDS011;20426;48.372;10.888;2023-02-12T01:44:42;20.38;;;11.38;;
34152;SDS011;20426;48.372;10.888;2023-02-12T01:45:46;20.50;;;11.82;;
34152;SDS011;20426;48.372;10.888;2023-02-12T01:46:22;19.65;;;12.13;;
34152;SDS011;20426;48.372;10.888;2023-02-12T01:46:57;19.85;;;11.98;;
34152;SDS011;20426;48.372;10.888;2023-02-12T01:47:31;21.77;;;11.77;;
34152;SDS011;20426;48.372;10.888;2023-02-12T01:48:02;22.73;;;11.88;;
34152;SDS011;20426;48.372;10.888;2023-02-12T01:48:44;21.48;;;11.82;;
34152;SDS011;20426;48.372;10.888;2023-02-12T01:49:18;20.00;;;12.18;;
34152;SDS011;20426;48.372;10.888;2023-02-12T01:49:55;21.02;;;12.00;;
34152;SDS011;20426;48.372;10.888;2023-02-12T01:50:26;20.05;;;11.65;;
34152;SDS011;20426;48.372;10.888;2023-02-12T01:50:57;18.15;;;12.43;;
34152;SDS011;20426;48.372;10.888;2023-02-12T01:51:29;21.95;;;11.25;;
34152;SDS011;20426;48.372;10.888;2023-02-12T01:52:03;25.05;;;12.30;;
34152;SDS011;20426;48.372;10.888;2023-02-12T01:52:54;19.17;;;10.85;;
34152;SDS011;20426;48.372;10.888;2023-02-12T01:53:28;20.85;;;12.30;;
34152;SDS011;20426;48.372;10.888;2023-02-12T01:54:05;22.95;;;12.80;;
34152;SDS011;20426;48.372;10.888;2023-02-12T01:54:39;19.05;;;11.90;;
34152;SDS011;20426;48.372;10.888;2023-02-12T01:55:11;23.75;;;11.98;;
34152;SDS011;20426;48.372;10.888;2023-02-12T01:55:43;20.48;;;11.38;;
34152;SDS011;20426;48.372;10.888;2023-02-12T01:56:14;19.40;;;11.40;;
34152;SDS011;20426;48.372;10.888;2023-02-12T01:56:45;20.55;;;11.85;;
34152;SDS011;20426;48.372;10.888;2023-02-12T01:57:17;22.50;;;12.77;;
34152;SDS011;20426;48.372;10.888;2023-02-12T01:57:49;24.65;;;12.93;;
34152;SDS011;20426;48.372;10.888;2023-02-12T01:58:19;21.40;;;12.82;;
34152;SDS011;20426;48.372;10.888;2023-02-12T01:58:51;22.40;;;12.85;;
34152;SDS011;20426;48.372;10.888;2023-02-12T01:59:24;21.00;;;11.85;;
34152;SDS011;20426;48.372;10.888;2023-02-12T01:59:55;21.50;;;12.32;;
34152;SDS011;20426;48.372;10.888;2023-02-12T02:00:29;21.55;;;12.25;;
34152;SDS011;20426;48.372;10.888;2023-02-12T02:01:03;26.27;;;12.93;;
34152;SDS011;20426;48.372;10.888;2023-02-12T02:01:37;17.42;;;11.55;;
34152;SDS011;20426;48.372;10.888;2023-02-12T02:02:08;20.65;;;12.23;;
34152;SDS011;20426;48.372;10.888;2023-02-12T02:02:38;22.05;;;12.55;;
34152;SDS011;20426;48.372;10.888;2023-02-12T02:03:12;24.52;;;12.48;;
34152;SDS011;20426;48.372;10.888;2023-02-12T02:03:44;21.55;;;13.05;;
34152;SDS011;20426;48.372;10.888;2023-02-12T02:04:19;19.23;;;11.50;;
34152;SDS011;20426;48.372;10.888;2023-02-12T02:04:54;24.20;;;11.50;;
34152;SDS011;20426;48.372;10.888;2023-02-12T02:06:13;22.30;;;12.85;;
34152;SDS011;20426;48.372;10.888;2023-02-12T02:06:47;24.88;;;12.40;;
34152;SDS011;20426;48.372;10.888;2023-02-12T02:07:23;24.13;;;12.30;;
34152;SDS011;20426;48.372;10.888;2023-02-12T02:07:53;18.65;;;12.50;;
34152;SDS011;20426;48.372;10.888;2023-02-12T02:08:24;19.85;;;12.70;;
34152;SDS011;20426;48.372;10.888;2023-02-12T02:08:55;20.27;;;12.38;;
34152;SDS011;20426;48.372;10.888;2023-02-12T02:09:27;22.85;;;12.80;;
34152;SDS011;20426;48.372;10.888;2023-02-12T02:10:00;24.60;;;11.98;;
34152;SDS011;20426;48.372;10.888;2023-02-12T02:10:31;19.83;;;13.10;;
34152;SDS011;20426;48.372;10.888;2023-02-12T02:11:02;21.08;;;12.60;;
34152;SDS011;20426;48.372;10.888;2023-02-12T02:11:53;22.08;;;12.70;;
34152;SDS011;20426;48.372;10.888;2023-02-12T02:12:42;21.08;;;12.10;;
34152;SDS011;20426;48.372;10.888;2023-02-12T02:13:31;21.50;;;12.27;;
34152;SDS011;20426;48.372;10.888;2023-02-12T02:14:21;19.48;;;11.82;;
34152;SDS011;20426;48.372;10.888;2023-02-12T02:15:04;25.05;;;12.60;;
34152;SDS011;20426;48.372;10.888;2023-02-12T02:15:36;19.02;;;12.27;;
34152;SDS011;20426;48.372;10.888;2023-02-12T02:16:28;18.08;;;11.70;;
34152;SDS011;20426;48.372;10.888;2023-02-12T02:18:05;26.60;;;11.75;;
34152;SDS011;20426;48.372;10.888;2023-02-12T02:19:19;24.45;;;12.70;;
34152;SDS011;20426;48.372;10.888;2023-02-12T02:20:25;27.73;;;15.02;;
34152;SDS011;20426;48.372;10.888;2023-02-12T02:24:14;22.08;;;11.65;;
34152;SDS011;20426;48.372;10.888;2023-02-12T02:30:57;24.80;;;12.43;;
34152;SDS011;20426;48.372;10.888;2023-02-12T02:31:45;25.35;;;13.25;;
34152;SDS011;20426;48.372;10.888;2023-02-12T02:32:22;24.88;;;12.73;;
34152;SDS011;20426;48.372;10.888;2023-02-12T02:32:58;24.33;;;13.50;;
34152;SDS011;20426;48.372;10.888;2023-02-12T02:33:44;24.40;;;13.27;;
34152;SDS011;20426;48.372;10.888;2023-02-12T02:34:52;20.85;;;12.23;;
34152;SDS011;20426;48.372;10.888;2023-02-12T02:36:49;22.40;;;13.25;;
34152;SDS011;20426;48.372;10.888;2023-02-12T02:41:00;21.23;;;12.82;;
34152;SDS011;20426;48.372;10.888;2023-02-12T02:41:39;20.58;;;13.00;;
34152;SDS011;20426;48.372;10.888;2023-02-12T02:42:16;22.00;;;12.85;;
34152;SDS011;20426;48.372;10.888;2023-02-12T02:43:17;21.23;;;12.38;;
34152;SDS011;20426;48.372;10.888;2023-02-12T02:43:52;24.00;;;12.57;;
34152;SDS011;20426;48.372;10.888;2023-02-12T02:44:34;19.27;;;11.63;;
34152;SDS011;20426;48.372;10.888;2023-02-12T02:45:58;19.83;;;12.30;;
34152;SDS011;20426;48.372;10.888;2023-02-12T02:46:46;20.05;;;11.90;;
34152;SDS011;20426;48.372;10.888;2023-02-12T02:47:27;21.73;;;12.68;;
34152;SDS011;20426;48.372;10.888;2023-02-12T02:48:07;30.20;;;13.90;;
34152;SDS011;20426;48.372;10.888;2023-02-12T02:48:46;21.98;;;12.93;;
34152;SDS011;20426;48.372;10.888;2023-02-12T02:49:24;22.40;;;12.02;;
34152;SDS011;20426;48.372;10.888;2023-02-12T02:50:07;27.83;;;13.13;;
34152;SDS011;20426;48.372;10.888;2023-02-12T02:50:42;26.17;;;13.45;;
34152;SDS011;20426;48.372;10.888;2023-02-12T02:51:19;23.90;;;12.68;;
34152;SDS011;20426;48.372;10.888;2023-02-12T02:51:56;29.10;;;14.30;;
34152;SDS011;20426;48.372;10.888;2023-02-12T02:52:34;25.10;;;13.70;;
34152;SDS011;20426;48.372;10.888;2023-02-12T02:53:11;23.83;;;12.85;;
34152;SDS011;20426;48.372;10.888;2023-02-12T02:53:46;22.85;;;12.52;;
34152;SDS011;20426;48.372;10.888;2023-02-12T02:54:55;20.95;;;12.82;;
34152;SDS011;20426;48.372;10.888;2023-02-12T02:55:41;20.88;;;13.02;;
34152;SDS011;20426;48.372;10.888;2023-02-12T02:56:16;26.33;;;14.13;;
34152;SDS011;20426;48.372;10.888;2023-02-12T02:56:51;24.08;;;13.25;;
34152;SDS011;20426;48.372;10.888;2023-02-12T02:57:34;25.15;;;15.13;;
34152;SDS011;20426;48.372;10.888;2023-02-12T02:58:23;22.05;;;13.30;;
34152;SDS011;20426;48.372;10.888;2023-02-12T02:59:01;22.73;;;12.48;;
34152;SDS011;20426;48.372;10.888;2023-02-12T02:59:40;21.67;;;12.43;;
34152;SDS011;20426;48.372;10.888;2023-02-12T03:00:17;25.05;;;14.30;;
34152;SDS011;20426;48.372;10.888;2023-02-12T03:00:57;21.73;;;13.82;;
34152;SDS011;20426;48.372;10.888;2023-02-12T03:01:39;22.67;;;12.52;;
34152;SDS011;20426;48.372;10.888;2023-02-12T03:02:34;24.67;;;13.68;;
34152;SDS011;20426;48.372;10.888;2023-02-12T03:03:14;21.60;;;12.43;;
34152;SDS011;20426;48.372;10.888;2023-02-12T03:04:05;23.05;;;13.80;;
34152;SDS011;20426;48.372;10.888;2023-02-12T03:05:13;21.88;;;12.05;;
34152;SDS011;20426;48.372;10.888;2023-02-12T03:05:50;26.33;;;13.73;;
34152;SDS011;20426;48.372;10.888;2023-02-12T03:07:33;23.58;;;13.05;;
34152;SDS011;20426;48.372;10.888;2023-02-12T03:08:14;20.13;;;12.30;;
34152;SDS011;20426;48.372;10.888;2023-02-12T03:08:55;27.23;;;14.43;;
34152;SDS011;20426;48.372;10.888;2023-02-12T03:09:35;22.58;;;12.43;;
34152;SDS011;20426;48.372;10.888;2023-02-12T03:10:15;28.42;;;14.48;;
34152;SDS011;20426;48.372;10.888;2023-02-12T03:10:50;22.08;;;13.07;;
34152;SDS011;20426;48.372;10.888;2023-02-12T03:11:26;24.77;;;13.95;;
34152;SDS011;20426;48.372;10.888;2023-02-12T03:12:01;22.70;;;13.10;;
34152;SDS011;20426;48.372;10.888;2023-02-12T03:12:37;22.88;;;13.15;;
34152;SDS011;20426;48.372;10.888;2023-02-12T03:13:20;29.88;;;13.93;;
34152;SDS011;20426;48.372;10.888;2023-02-12T03:14:44;23.52;;;13.25;;
34152;SDS011;20426;48.372;10.888;2023-02-12T03:15:23;25.67;;;14.73;;
34152;SDS011;20426;48.372;10.888;2023-02-12T03:17:03;22.98;;;14.60;;
34152;SDS011;20426;48.372;10.888;2023-02-12T03:17:36;25.40;;;13.77;;
34152;SDS011;20426;48.372;10.888;2023-02-12T03:18:13;23.13;;;12.68;;
34152;SDS011;20426;48.372;10.888;2023-02-12T03:19:29;21.77;;;12.55;;
34152;SDS011;20426;48.372;10.888;2023-02-12T03:20:18;25.08;;;13.82;;
34152;SDS011;20426;48.372;10.888;2023-02-12T03:20:55;25.23;;;14.05;;
34152;SDS011;20426;48.372;10.888;2023-02-12T03:21:33;23.00;;;12.98;;
34152;SDS011;20426;48.372;10.888;2023-02-12T03:22:13;23.85;;;14.27;;
34152;SDS011;20426;48.372;10.888;2023-02-12T03:22:52;22.83;;;14.05;;
34152;SDS011;20426;48.372;10.888;2023-02-12T03:23:47;22.13;;;12.93;;
34152;SDS011;20426;48.372;10.888;2023-02-12T03:25:02;27.13;;;14.57;;
34152;SDS011;20426;48.372;10.888;2023-02-12T03:25:45;22.50;;;13.65;;
34152;SDS011;20426;48.372;10.888;2023-02-12T03:27:18;26.80;;;13.75;;
34152;SDS011;20426;48.372;10.888;2023-02-12T03:27:41;25.23;;;13.55;;
34152;SDS011;20426;48.372;10.888;2023-02-12T03:28:23;28.38;;;14.40;;
34152;SDS011;20426;48.372;10.888;2023-02-12T03:29:06;25.45;;;13.73;;
34152;SDS011;20426;48.372;10.888;2023-02-12T03:29:37;29.17;;;14.18;;
34152;SDS011;20426;48.372;10.888;2023-02-12T03:30:08;27.70;;;14.52;;
34152;SDS011;20426;48.372;10.888;2023-02-12T03:30:41;22.00;;;13.73;;
34152;SDS011;20426;48.372;10.888;2023-02-12T03:31:20;23.98;;;13.73;;
34152;SDS011;20426;48.372;10.888;2023-02-12T03:32:27;23.27;;;12.90;;
34152;SDS011;20426;48.372;10.888;2023-02-12T03:33:19;23.58;;;13.55;;
34152;SDS011;20426;48.372;10.888;2023-02-12T03:35:31;23.95;;;14.18;;
34152;SDS011;20426;48.372;10.888;2023-02-12T03:36:01;23.45;;;12.82;;
34152;SDS011;20426;48.372;10.888;2023-02-12T03:36:52;22.95;;;12.57;;
34152;SDS011;20426;48.372;10.888;2023-02-12T03:37:30;22.05;;;12.77;;
34152;SDS011;20426;48.372;10.888;2023-02-12T03:39:00;23.88;;;13.57;;
34152;SDS011;20426;48.372;10.888;2023-02-12T03:40:55;30.33;;;13.60;;
34152;SDS011;20426;48.372;10.888;2023-02-12T03:41:36;25.90;;;14.23;;
34152;SDS011;20426;48.372;10.888;2023-02-12T03:46:09;23.80;;;14.07;;
34152;SDS011;20426;48.372;10.888;2023-02-12T03:47:43;27.92;;;14.18;;
34152;SDS011;20426;48.372;10.888;2023-02-12T03:49:02;29.02;;;15.70;;
34152;SDS011;20426;48.372;10.888;2023-02-12T03:50:43;28.33;;;15.02;;
34152;SDS011;20426;48.372;10.888;2023-02-12T03:50:47;24.02;;;14.38;;
34152;SDS011;20426;48.372;10.888;2023-02-12T03:51:36;28.73;;;14.30;;